createdAt,value
2023-05-12T00:01:17.072Z,90286.34
2023-05-12T00:03:44.172Z,90288.25
2023-05-12T00:06:11.210Z,90298.41
2023-05-12T00:08:37.662Z,90291.19
2023-05-12T00:11:04.484Z,90296.09
2023-05-12T00:13:31.067Z,90293.72
2023-05-12T00:15:58.775Z,90286.94
2023-05-12T00:18:26.852Z,90280.16
2023-05-12T00:20:54.970Z,90268.88
2023-05-12T00:23:22.144Z,90263.97
2023-05-12T00:25:49.158Z,90259.88
2023-05-12T00:28:15.664Z,90244.06
2023-05-12T00:30:42.032Z,90236.94
2023-05-12T00:33:08.800Z,90214.72
2023-05-12T00:35:35.160Z,90203.84
2023-05-12T00:38:01.991Z,90206.78
2023-05-12T00:40:28.356Z,90189.72
2023-05-12T00:42:54.672Z,90190.53
2023-05-12T00:45:22.197Z,90190.13
2023-05-12T00:47:51.468Z,90181.47
2023-05-12T00:50:18.816Z,90189.72
2023-05-12T00:52:46.683Z,90194.88
2023-05-12T00:55:13.117Z,90196.41
2023-05-12T00:57:40.799Z,90179.13
2023-05-12T01:00:07.856Z,90179.88
2023-05-12T01:02:34.356Z,90179.06
2023-05-12T01:05:01.407Z,90180.25
2023-05-12T01:07:32.199Z,90175.38
2023-05-12T01:09:59.252Z,90173.41
2023-05-12T01:12:26.915Z,90170.34
2023-05-12T01:14:55.686Z,90173.69
2023-05-12T01:17:32.419Z,90169.88
2023-05-12T01:20:01.602Z,90174.41
2023-05-12T01:22:33.987Z,90168.41
2023-05-12T01:25:05.763Z,90163.50
2023-05-12T01:30:19.906Z,90159.69
2023-05-12T01:32:46.571Z,90162.69
2023-05-12T01:35:13.309Z,90158.22
2023-05-12T01:37:39.633Z,90172.19
2023-05-12T01:40:06.462Z,90180.00
2023-05-12T01:42:33.283Z,90182.97
2023-05-12T01:44:59.592Z,90181.88
2023-05-12T01:47:25.958Z,90163.19
2023-05-12T01:49:54.856Z,90160.88
2023-05-12T01:52:21.182Z,90166.16
2023-05-12T01:54:47.517Z,90158.69
2023-05-12T01:57:14.328Z,90160.94
2023-05-12T01:59:40.657Z,90167.72
2023-05-12T02:02:07.161Z,90171.47
2023-05-12T02:04:34.822Z,90162.53
2023-05-12T02:07:01.804Z,90143.75
2023-05-12T02:09:28.130Z,90141.34
2023-05-12T02:11:54.851Z,90151.25
2023-05-12T02:14:21.264Z,90145.06
2023-05-12T02:16:52.366Z,90168.75
2023-05-12T02:19:22.038Z,90181.50
2023-05-12T02:21:48.807Z,90175.94
2023-05-12T02:24:16.503Z,90167.72
2023-05-12T02:26:43.290Z,90176.69
2023-05-12T02:29:10.816Z,90188.75
2023-05-12T02:31:37.219Z,90181.19
2023-05-12T02:34:06.614Z,90193.22
2023-05-12T02:36:33.252Z,90178.84
2023-05-12T02:38:59.574Z,90181.91
2023-05-12T02:41:26.324Z,90169.13
2023-05-12T02:43:53.552Z,90169.94
2023-05-12T02:46:20.105Z,90157.94
2023-05-12T02:48:47.314Z,90157.03
2023-05-12T02:51:13.688Z,90145.81
2023-05-12T02:53:40.252Z,90161.19
2023-05-12T02:56:07.264Z,90162.28
2023-05-12T02:58:34.186Z,90169.81
2023-05-12T03:01:09.824Z,90158.53
2023-05-12T03:03:38.174Z,90169.72
2023-05-12T03:06:05.172Z,90177.22
2023-05-12T03:08:31.649Z,90183.19
2023-05-12T03:10:59.003Z,90163.69
2023-05-12T03:13:25.428Z,90177.22
2023-05-12T03:15:51.786Z,90171.91
2023-05-12T03:18:18.594Z,90178.72
2023-05-12T03:20:45.631Z,90186.91
2023-05-12T03:23:12.068Z,90185.44
2023-05-12T03:25:38.374Z,90167.81
2023-05-12T03:28:05.672Z,90146.00
2023-05-12T03:30:32.977Z,90141.47
2023-05-12T03:32:59.859Z,90131.97
2023-05-12T03:35:26.340Z,90117.69
2023-05-12T03:37:52.997Z,90128.50
2023-05-12T03:40:19.605Z,90130.38
2023-05-12T03:42:46.164Z,90129.16
2023-05-12T03:45:13.186Z,90141.09
2023-05-12T03:47:40.545Z,90130.25
2023-05-12T03:50:08.100Z,90128.03
2023-05-12T03:52:34.638Z,90116.06
2023-05-12T03:55:00.976Z,90106.22
2023-05-12T03:57:27.305Z,90100.63
2023-05-12T03:59:54.006Z,90087.47
2023-05-12T04:02:20.464Z,90081.00
2023-05-12T04:04:46.860Z,90079.84
2023-05-12T04:07:13.593Z,90080.25
2023-05-12T04:09:40.027Z,90071.22
2023-05-12T04:12:07.204Z,90060.25
2023-05-12T04:14:42.166Z,90050.06
2023-05-12T04:17:10.032Z,90044.56
2023-05-12T04:19:36.402Z,90019.66
2023-05-12T04:22:02.702Z,90030.25
2023-05-12T04:24:29.548Z,90026.34
2023-05-12T04:26:57.531Z,90040.66
2023-05-12T04:29:23.867Z,90037.00
2023-05-12T04:31:50.608Z,90028.72
2023-05-12T04:34:17.023Z,90034.88
2023-05-12T04:36:43.924Z,90034.50
2023-05-12T04:39:10.243Z,90027.72
2023-05-12T04:41:36.807Z,90034.09
2023-05-12T04:44:03.775Z,90023.22
2023-05-12T04:46:30.149Z,90001.47
2023-05-12T04:48:56.597Z,90001.91
2023-05-12T04:51:23.397Z,89992.03
2023-05-12T04:53:49.729Z,90019.22
2023-05-12T04:56:16.521Z,90019.50
2023-05-12T04:58:42.922Z,90039.16
2023-05-12T05:01:09.384Z,90050.00
2023-05-12T05:03:36.321Z,90050.09
2023-05-12T05:06:02.717Z,90030.63
2023-05-12T05:08:29.045Z,90024.59
2023-05-12T05:10:55.730Z,90044.09
2023-05-12T05:13:22.048Z,90036.38
2023-05-12T05:15:52.444Z,90019.06
2023-05-12T05:18:20.571Z,89999.91
2023-05-12T05:23:16.956Z,90000.66
2023-05-12T05:25:43.852Z,89976.63
2023-05-12T05:28:10.199Z,89969.44
2023-05-12T05:30:36.574Z,89981.13
2023-05-12T05:33:03.281Z,89989.41
2023-05-12T05:35:31.258Z,89993.91
2023-05-12T05:37:57.608Z,90005.72
2023-05-12T05:40:24.594Z,90023.44
2023-05-12T05:42:51.461Z,90021.19
2023-05-12T05:45:17.938Z,90028.47
2023-05-12T05:47:44.513Z,90012.31
2023-05-12T05:50:11.389Z,90050.53
2023-05-12T05:52:37.739Z,90084.38
2023-05-12T05:55:05.108Z,90098.00
2023-05-12T05:57:31.434Z,90117.63
2023-05-12T05:59:57.760Z,90109.41
2023-05-12T06:02:24.623Z,90094.94
2023-05-12T06:04:52.333Z,90116.75
2023-05-12T06:07:20.040Z,90129.94
2023-05-12T06:09:48.210Z,90122.56
2023-05-12T06:12:14.548Z,90129.38
2023-05-12T06:14:40.898Z,90154.28
2023-05-12T06:17:07.565Z,90144.22
2023-05-12T06:19:34.491Z,90145.03
2023-05-12T06:22:00.899Z,90130.47
2023-05-12T06:24:27.215Z,90128.59
2023-05-12T06:26:54.154Z,90117.00
2023-05-12T06:29:21.222Z,90143.25
2023-05-12T06:31:48.047Z,90213.88
2023-05-12T06:34:14.688Z,90246.94
2023-05-12T06:36:41.387Z,90280.41
2023-05-12T06:39:07.872Z,90296.09
2023-05-12T06:41:34.206Z,90269.72
2023-05-12T06:44:02.732Z,90240.16
2023-05-12T06:46:29.165Z,90239.88
2023-05-12T06:48:55.618Z,90222.31
2023-05-12T06:51:22.696Z,90214.00
2023-05-12T06:53:49.113Z,90143.47
2023-05-12T06:56:17.027Z,90098.19
2023-05-12T06:58:44.353Z,90043.03
2023-05-12T07:01:11.309Z,89989.31
2023-05-12T07:03:37.746Z,90001.44
2023-05-12T07:06:04.632Z,89973.91
2023-05-12T07:08:31.636Z,89921.25
2023-05-12T07:11:00.852Z,90020.50
2023-05-12T07:13:27.791Z,90179.84
2023-05-12T07:15:54.538Z,90162.25
2023-05-12T07:18:21.273Z,90114.63
2023-05-12T07:20:47.744Z,90111.44
2023-05-12T07:23:14.107Z,90091.06
2023-05-12T07:25:40.966Z,90130.69
2023-05-12T07:28:07.467Z,90151.31
2023-05-12T07:30:33.836Z,90212.66
2023-05-12T07:33:01.732Z,90330.16
2023-05-12T07:35:28.329Z,90395.47
2023-05-12T07:37:54.704Z,90508.97
2023-05-12T07:40:21.533Z,90493.50
2023-05-12T07:42:48.430Z,90359.56
2023-05-12T07:45:22.699Z,90684.69
2023-05-12T07:47:51.102Z,91161.63
2023-05-12T07:50:18.478Z,91277.69
2023-05-12T07:52:50.694Z,91412.19
2023-05-12T07:55:18.818Z,91355.53
2023-05-12T07:57:45.802Z,91431.91
2023-05-12T08:00:13.625Z,91389.94
2023-05-12T08:02:41.338Z,91526.72
2023-05-12T08:05:11.158Z,91612.34
2023-05-12T08:07:38.986Z,91847.22
2023-05-12T08:10:06.392Z,91892.16
2023-05-12T08:12:33.564Z,91919.78
2023-05-12T08:15:00.400Z,91986.47
2023-05-12T08:17:29.050Z,91927.13
2023-05-12T08:19:55.664Z,91897.28
2023-05-12T08:22:22.358Z,91834.53
2023-05-12T08:24:48.736Z,91855.22
2023-05-12T08:27:15.073Z,91895.81
2023-05-12T08:29:41.893Z,91809.25
2023-05-12T08:32:08.736Z,91800.38
2023-05-12T08:34:35.157Z,91779.00
2023-05-12T08:37:01.997Z,91822.81
2023-05-12T08:39:30.967Z,91812.84
2023-05-12T08:42:13.978Z,91746.75
2023-05-12T08:44:40.804Z,91813.34
2023-05-12T08:47:08.495Z,91961.03
2023-05-12T08:49:36.645Z,91806.47
2023-05-12T08:52:03.498Z,91779.63
2023-05-12T08:54:30.285Z,92073.88
2023-05-12T08:59:27.029Z,92125.47
2023-05-12T09:01:54.784Z,92018.63
2023-05-12T09:04:21.205Z,92255.97
2023-05-12T09:06:48.346Z,92457.88
2023-05-12T09:09:17.804Z,92616.19
2023-05-12T09:11:45.026Z,92687.69
2023-05-12T09:14:25.507Z,92760.81
2023-05-12T09:17:01.337Z,92801.63
2023-05-12T09:19:28.195Z,92822.13
2023-05-12T09:21:54.629Z,92736.25
2023-05-12T09:24:22.387Z,92699.16
2023-05-12T09:26:52.293Z,92627.22
2023-05-12T09:29:30.775Z,92820.78
2023-05-12T09:32:03.548Z,92830.94
2023-05-12T09:34:41.006Z,92820.09
2023-05-12T09:37:08.334Z,92907.38
2023-05-12T09:39:35.141Z,93081.59
2023-05-12T09:42:01.833Z,93098.22
2023-05-12T09:44:31.279Z,93174.81
2023-05-12T09:47:06.583Z,93241.88
2023-05-12T09:49:33.519Z,93367.75
2023-05-12T09:52:00.279Z,93370.91
2023-05-12T09:54:28.597Z,93374.94
2023-05-12T09:57:00.463Z,93346.59
2023-05-12T09:59:36.567Z,93356.50
2023-05-12T10:02:06.615Z,93388.56
2023-05-12T10:04:41.687Z,93294.28
2023-05-12T10:07:12.149Z,93209.94
2023-05-12T10:09:42.205Z,93039.59
2023-05-12T10:12:10.124Z,92800.41
2023-05-12T10:14:38.353Z,92650.38
2023-05-12T10:17:06.831Z,92469.75
2023-05-12T10:19:35.738Z,92432.44
2023-05-12T10:22:03.798Z,92529.78
2023-05-12T10:24:30.519Z,92609.75
2023-05-12T10:26:58.075Z,92552.63
2023-05-12T10:29:30.157Z,92572.72
2023-05-12T10:31:57.752Z,92601.09
2023-05-12T10:34:40.201Z,92617.84
2023-05-12T10:37:10.786Z,92606.47
2023-05-12T10:39:46.725Z,92734.16
2023-05-12T10:42:17.021Z,92829.81
2023-05-12T10:44:54.313Z,92937.16
2023-05-12T10:47:27.322Z,92914.09
2023-05-12T10:50:00.085Z,92945.03
2023-05-12T10:52:26.490Z,92990.06
2023-05-12T10:55:04.388Z,92996.53
2023-05-12T10:57:33.028Z,92995.72
2023-05-12T11:00:01.535Z,93006.03
2023-05-12T11:02:36.154Z,92977.16
2023-05-12T11:05:12.905Z,92956.38
2023-05-12T11:07:41.203Z,92918.38
2023-05-12T11:10:08.841Z,92860.19
2023-05-12T11:12:35.874Z,92802.03
2023-05-12T11:15:04.532Z,92704.50
2023-05-12T11:17:31.725Z,92690.41
2023-05-12T11:19:58.474Z,92689.94
2023-05-12T11:22:25.187Z,92840.84
2023-05-12T11:24:52.701Z,92916.91
2023-05-12T11:27:21.126Z,93019.66
2023-05-12T11:30:02.617Z,93009.44
2023-05-12T11:32:30.286Z,92949.38
2023-05-12T11:35:09.773Z,93047.59
2023-05-12T11:37:39.200Z,93156.13
2023-05-12T11:40:26.113Z,93177.78
2023-05-12T11:42:55.113Z,93311.44
2023-05-12T11:45:28.547Z,93379.00
2023-05-12T11:48:11.710Z,93435.94
2023-05-12T11:50:40.543Z,93487.31
2023-05-12T11:53:11.861Z,93501.59
2023-05-12T11:55:38.278Z,93501.06
2023-05-12T11:58:04.743Z,93450.31
2023-05-12T12:00:35.817Z,93392.78
2023-05-12T12:03:10.164Z,93362.81
2023-05-12T12:05:38.069Z,93341.50
2023-05-12T12:08:06.609Z,93328.16
2023-05-12T12:10:32.993Z,93321.94
2023-05-12T12:13:01.816Z,93394.97
2023-05-12T12:15:29.211Z,93439.41
2023-05-12T12:17:55.659Z,93408.38
2023-05-12T12:20:24.905Z,93353.06
2023-05-12T12:22:52.529Z,93359.59
2023-05-12T12:25:20.347Z,93384.50
2023-05-12T12:27:48.555Z,93368.81
2023-05-12T12:30:16.868Z,93275.06
2023-05-12T12:32:44.097Z,93241.84
2023-05-12T12:35:11.429Z,93257.78
2023-05-12T12:37:37.852Z,93321.69
2023-05-12T12:40:08.129Z,93310.66
2023-05-12T12:42:36.325Z,93402.97
2023-05-12T12:45:06.630Z,93476.06
2023-05-12T12:47:33.007Z,93495.19
2023-05-12T12:50:00.101Z,93562.19
2023-05-12T12:52:26.802Z,93586.53
2023-05-12T12:54:53.203Z,93713.84
2023-05-12T12:57:21.426Z,93782.22
2023-05-12T12:59:48.193Z,93806.59
2023-05-12T13:02:14.753Z,93744.03
2023-05-12T13:04:41.725Z,93712.06
2023-05-12T13:07:08.126Z,93702.31
2023-05-12T13:09:34.491Z,93678.28
2023-05-12T13:12:01.481Z,93705.28
2023-05-12T13:14:27.911Z,93722.06
2023-05-12T13:16:54.295Z,93696.09
2023-05-12T13:19:22.076Z,93657.81
2023-05-12T13:21:49.465Z,93569.53
2023-05-12T13:24:15.877Z,93519.59
2023-05-12T13:26:42.583Z,93512.44
2023-05-12T13:29:08.914Z,93421.50
2023-05-12T13:31:35.371Z,93330.09
2023-05-12T13:34:02.213Z,93287.44
2023-05-12T13:36:29.444Z,93271.94
2023-05-12T13:38:55.787Z,93264.84
2023-05-12T13:41:22.640Z,93292.13
2023-05-12T13:43:49.015Z,93334.63
2023-05-12T13:46:15.506Z,93349.25
2023-05-12T13:48:41.888Z,93420.00
2023-05-12T13:51:08.328Z,93529.81
2023-05-12T13:53:37.544Z,93495.66
2023-05-12T13:56:04.015Z,93536.81
2023-05-12T13:58:30.729Z,93553.34
2023-05-12T14:00:57.195Z,93667.38
2023-05-12T14:03:23.519Z,93685.53
2023-05-12T14:05:50.186Z,93715.16
2023-05-12T14:08:16.508Z,93708.97
2023-05-12T14:10:42.950Z,93769.25
2023-05-12T14:13:09.833Z,93830.09
2023-05-12T14:15:47.989Z,93858.28
2023-05-12T14:18:16.131Z,93840.50
2023-05-12T14:20:42.736Z,93772.28
2023-05-12T14:23:09.088Z,93757.63
2023-05-12T14:25:35.586Z,93761.41
2023-05-12T14:28:03.006Z,93678.31
2023-05-12T14:30:29.742Z,93584.78
2023-05-12T14:32:56.240Z,93435.97
2023-05-12T14:35:27.821Z,93326.47
2023-05-12T14:37:55.602Z,93246.28
2023-05-12T14:40:23.310Z,93157.13
2023-05-12T14:42:49.629Z,93147.03
2023-05-12T14:45:16.516Z,93180.81
2023-05-12T14:47:43.673Z,93236.03
2023-05-12T14:50:11.124Z,93280.44
2023-05-12T14:52:40.083Z,93335.34
2023-05-12T14:55:11.943Z,93342.28
2023-05-12T14:57:39.786Z,93352.53
2023-05-12T15:00:08.616Z,93443.09
2023-05-12T15:02:35.097Z,93416.97
2023-05-12T15:05:01.988Z,93351.22
2023-05-12T15:07:28.389Z,93289.41
2023-05-12T15:09:54.718Z,93235.66
2023-05-12T15:12:22.515Z,93238.16
2023-05-12T15:14:48.842Z,93213.03
2023-05-12T15:17:15.930Z,93241.66
2023-05-12T15:19:42.457Z,93321.59
2023-05-12T15:22:09.020Z,93315.72
2023-05-12T15:24:35.903Z,93307.84
2023-05-12T15:27:02.228Z,93266.31
2023-05-12T15:29:28.762Z,93249.38
2023-05-12T15:31:55.485Z,93276.88
2023-05-12T15:34:22.150Z,93356.81
2023-05-12T15:36:48.824Z,93279.13
2023-05-12T15:39:16.356Z,93270.81
2023-05-12T15:41:43.493Z,93247.03
2023-05-12T15:44:09.845Z,93238.25
2023-05-12T15:46:37.756Z,93234.81
2023-05-12T15:49:04.118Z,93276.63
2023-05-12T15:51:31.294Z,93325.63
2023-05-12T15:53:58.198Z,93291.25
2023-05-12T15:56:24.961Z,93356.88
2023-05-12T15:58:51.756Z,93294.22
2023-05-12T16:01:18.140Z,93256.63
2023-05-12T16:03:45.734Z,93216.00
2023-05-12T16:06:12.244Z,93120.53
2023-05-12T16:08:38.639Z,93062.78
2023-05-12T16:11:05.768Z,93005.69
2023-05-12T16:13:32.179Z,92911.00
2023-05-12T16:15:58.621Z,92816.72
2023-05-12T16:18:25.696Z,92790.97
2023-05-12T16:20:52.056Z,92697.88
2023-05-12T16:23:18.409Z,92629.00
2023-05-12T16:25:45.550Z,92549.63
2023-05-12T16:28:11.971Z,92499.53
2023-05-12T16:30:38.699Z,92475.69
2023-05-12T16:33:06.973Z,92421.88
2023-05-12T16:35:33.689Z,92356.19
2023-05-12T16:38:00.470Z,92302.69
2023-05-12T16:40:27.278Z,92267.31
2023-05-12T16:42:55.751Z,92222.72
2023-05-12T16:45:23.222Z,92171.88
2023-05-12T16:47:51.528Z,92135.75
2023-05-12T16:50:18.042Z,92073.28
2023-05-12T16:52:44.372Z,92041.25
2023-05-12T16:55:11.421Z,92023.84
2023-05-12T16:57:37.803Z,92005.94
2023-05-12T17:00:06.476Z,91994.47
2023-05-12T17:02:33.854Z,91913.59
2023-05-12T17:05:00.384Z,91687.66
2023-05-12T17:07:26.820Z,91681.28
2023-05-12T17:09:53.670Z,91645.09
2023-05-12T17:12:19.992Z,91625.38
2023-05-12T17:14:53.165Z,91641.72
2023-05-12T17:17:30.468Z,91626.22
2023-05-12T17:19:56.926Z,91615.75
2023-05-12T17:22:23.315Z,91572.00
2023-05-12T17:24:50.366Z,91583.31
2023-05-12T17:27:16.777Z,91592.81
2023-05-12T17:29:43.149Z,91631.06
2023-05-12T17:32:09.774Z,91617.69
2023-05-12T17:34:36.138Z,91599.00
2023-05-12T17:37:04.479Z,91600.97
2023-05-12T17:39:31.695Z,91579.94
2023-05-12T17:41:59.045Z,91571.09
2023-05-12T17:44:25.576Z,91577.94
2023-05-12T17:46:52.288Z,91585.09
2023-05-12T17:49:18.646Z,91599.31
2023-05-12T17:51:44.982Z,91562.56
2023-05-12T17:54:11.756Z,91513.47
2023-05-12T17:56:38.281Z,91491.09
2023-05-12T17:59:04.673Z,91445.53
2023-05-12T18:01:31.420Z,91394.22
2023-05-12T18:03:58.061Z,91393.97
2023-05-12T18:06:24.396Z,91365.56
2023-05-12T18:08:51.138Z,91353.50
2023-05-12T18:11:17.482Z,91347.53
2023-05-12T18:13:43.872Z,91494.84
2023-05-12T18:16:18.242Z,91543.31
2023-05-12T18:18:54.386Z,91587.75
2023-05-12T18:21:21.264Z,91579.19
2023-05-12T18:23:47.621Z,91600.81
2023-05-12T18:26:14.017Z,91631.13
2023-05-12T18:28:41.408Z,91650.09
2023-05-12T18:31:15.842Z,91682.13
2023-05-12T18:33:43.105Z,91682.72
2023-05-12T18:36:10.055Z,91742.09
2023-05-12T18:38:36.414Z,91746.75
2023-05-12T18:41:03.394Z,91731.75
2023-05-12T18:43:29.812Z,91786.81
2023-05-12T18:45:56.213Z,91808.72
2023-05-12T18:48:23.009Z,91834.13
2023-05-12T18:50:49.558Z,91854.63
2023-05-12T18:53:15.903Z,91884.63
2023-05-12T18:55:43.212Z,91884.59
2023-05-12T18:58:09.644Z,91901.75
2023-05-12T19:00:36.013Z,91907.84
2023-05-12T19:03:03.409Z,91878.25
2023-05-12T19:05:30.252Z,91899.34
2023-05-12T19:07:57.348Z,91925.34
2023-05-12T19:10:23.684Z,91930.78
2023-05-12T19:12:50.942Z,91948.75
2023-05-12T19:15:18.205Z,91982.22
2023-05-12T19:17:44.703Z,91984.38
2023-05-12T19:20:11.337Z,91995.50
2023-05-12T19:22:38.187Z,92025.97
2023-05-12T19:25:05.907Z,92022.66
2023-05-12T19:27:32.794Z,92025.34
2023-05-12T19:30:02.547Z,92030.47
2023-05-12T19:32:29.010Z,92025.50
2023-05-12T19:34:55.861Z,92039.81
2023-05-12T19:37:22.785Z,92045.91
2023-05-12T19:39:50.031Z,92049.03
2023-05-12T19:42:16.344Z,92027.22
2023-05-12T19:44:43.082Z,92043.72
2023-05-12T19:47:09.461Z,92026.41
2023-05-12T19:49:36.610Z,92037.03
2023-05-12T19:52:04.488Z,92044.50
2023-05-12T19:54:31.316Z,92063.38
2023-05-12T19:56:57.864Z,92061.97
2023-05-12T19:59:24.668Z,92070.41
2023-05-12T20:01:51.767Z,92064.31
2023-05-12T20:04:18.150Z,92042.44
2023-05-12T20:06:44.604Z,92053.69
2023-05-12T20:09:11.359Z,92028.44
2023-05-12T20:11:37.691Z,92023.88
2023-05-12T20:14:04.029Z,92035.13
2023-05-12T20:16:30.503Z,92025.28
2023-05-12T20:18:57.639Z,92005.31
2023-05-12T20:21:24.536Z,92017.03
2023-05-12T20:23:50.885Z,91992.56
2023-05-12T20:26:17.257Z,92003.47
2023-05-12T20:28:43.722Z,92012.97
2023-05-12T20:31:10.203Z,92005.78
2023-05-12T20:33:36.965Z,92001.75
2023-05-12T20:36:03.792Z,92002.53
2023-05-12T20:38:30.801Z,92022.03
2023-05-12T20:41:03.788Z,92014.53
2023-05-12T20:43:30.281Z,92015.78
2023-05-12T20:45:56.839Z,92017.50
2023-05-12T20:48:23.241Z,92012.81
2023-05-12T20:50:50.104Z,92031.53
2023-05-12T20:53:16.669Z,92029.19
2023-05-12T20:55:43.078Z,92042.59
2023-05-12T20:58:10.271Z,92033.56
2023-05-12T21:00:37.155Z,92049.63
2023-05-12T21:03:05.453Z,92050.41
2023-05-12T21:05:32.885Z,92033.56
2023-05-12T21:07:59.464Z,92044.03
2023-05-12T21:10:25.821Z,92043.38
2023-05-12T21:12:52.162Z,92040.28
2023-05-12T21:15:18.598Z,92046.97
2023-05-12T21:17:44.963Z,92046.34
2023-05-12T21:20:12.490Z,92042.00
2023-05-12T21:22:40.645Z,92042.44
2023-05-12T21:25:07.449Z,92048.53
2023-05-12T21:27:34.902Z,92056.03
2023-05-12T21:30:01.253Z,92062.41
2023-05-12T21:32:27.754Z,92066.63
2023-05-12T21:34:54.976Z,92058.53
2023-05-12T21:37:21.440Z,92050.72
2023-05-12T21:39:47.776Z,92051.19
2023-05-12T21:42:14.786Z,92063.66
2023-05-12T21:44:41.180Z,92064.44
2023-05-12T21:47:08.482Z,92065.66
2023-05-12T21:49:35.349Z,92057.56
2023-05-12T21:52:01.759Z,92053.19
2023-05-12T21:54:28.225Z,92037.75
2023-05-12T21:56:55.065Z,92042.13
2023-05-12T21:59:21.446Z,92049.63
2023-05-12T22:01:47.880Z,92040.59
2023-05-12T22:04:15.551Z,92042.59
2023-05-12T22:06:42.140Z,92037.44
2023-05-12T22:09:08.459Z,92033.25
2023-05-12T22:11:35.338Z,92036.03
2023-05-12T22:14:02.103Z,92039.28
2023-05-12T22:16:40.672Z,92035.38
2023-05-12T22:19:08.617Z,92030.88
2023-05-12T22:21:35.061Z,92031.34
2023-05-12T22:24:01.429Z,92019.81
2023-05-12T22:26:28.128Z,92023.38
2023-05-12T22:28:54.631Z,92024.78
2023-05-12T22:31:21.289Z,92021.06
2023-05-12T22:33:48.307Z,92016.53
2023-05-12T22:36:15.271Z,92011.41
2023-05-12T22:38:41.633Z,92007.06
2023-05-12T22:41:08.401Z,92003.44
2023-05-12T22:43:34.745Z,91997.38
2023-05-12T22:46:01.133Z,92004.50
2023-05-12T22:48:28.027Z,92010.00
2023-05-12T22:50:54.994Z,91997.66
2023-05-12T22:53:21.324Z,91976.00
2023-05-12T22:55:48.418Z,91978.19
2023-05-12T22:58:14.750Z,91982.38
2023-05-12T23:00:41.116Z,91971.91
2023-05-12T23:03:08.108Z,91959.00
2023-05-12T23:05:34.463Z,91950.13
2023-05-12T23:08:02.765Z,91936.09
2023-05-12T23:10:29.627Z,91935.78
2023-05-12T23:12:56.028Z,91919.25
2023-05-12T23:15:22.362Z,91927.97
2023-05-12T23:17:49.127Z,91925.47
2023-05-12T23:20:15.635Z,91919.41
2023-05-12T23:22:42.017Z,91916.91
2023-05-12T23:25:09.561Z,91929.38
2023-05-12T23:27:36.627Z,91917.84
2023-05-12T23:30:03.348Z,91912.09
2023-05-12T23:32:30.229Z,91910.97
2023-05-12T23:34:56.623Z,91913.16
2023-05-12T23:37:24.462Z,91918.94
2023-05-12T23:39:51.333Z,91909.75
2023-05-12T23:42:17.715Z,91909.44
2023-05-12T23:44:44.413Z,91909.75
2023-05-12T23:47:10.768Z,91900.09
2023-05-12T23:49:37.119Z,91910.50
2023-05-12T23:52:03.998Z,91908.31
2023-05-12T23:54:30.318Z,91910.97
2023-05-12T23:56:56.651Z,91905.22
2023-05-12T23:59:23.862Z,91910.97
